LTO weather

Loreto International Airport
Loreto, Baja California Sur, Mexico

Public forecast

Using degrees Celsius for public forecast. Weather courtesy of forecast.io.

METAR (pilot weather report)

Retrieved 2019/04/21 21:52 UTC (37 minutes ago):

MMLT 212152Z 06008KT 10SM FEW160 BKN240 28/21 A2986 RMK 8/032

TAF (pilot weather forecast)

Retrieved 2019/04/21 18:45 UTC (4 hours ago):

TAF MMLT 211638Z 2118/2218 04012KT P6SM BKN250 FM220600 34010KT P6SM BKN200